createdAt,value
2017-06-17T00:00:27.664Z,25.54
2017-06-17T00:01:28.004Z,25.46
2017-06-17T00:02:28.029Z,25.55
2017-06-17T00:03:27.742Z,25.51
2017-06-17T00:04:28.077Z,25.52
2017-06-17T00:05:28.116Z,25.55
2017-06-17T00:06:28.140Z,25.5
2017-06-17T00:07:28.172Z,25.47
2017-06-17T00:08:28.194Z,25.55
2017-06-17T00:09:28.230Z,25.54
2017-06-17T00:10:28.251Z,25.5
2017-06-17T00:11:27.971Z,25.43
2017-06-17T00:12:28.313Z,25.51
2017-06-17T00:13:28.338Z,25.4
2017-06-17T00:14:28.054Z,25.5
2017-06-17T00:15:28.406Z,25.47
2017-06-17T00:16:28.422Z,25.46
2017-06-17T00:17:28.458Z,25.45
2017-06-17T00:18:28.169Z,25.43
2017-06-17T00:19:28.510Z,25.4
2017-06-17T00:20:28.547Z,25.46
2017-06-17T00:21:27.944Z,25.35
2017-06-17T00:22:28.601Z,25.35
2017-06-17T00:23:28.623Z,25.42
2017-06-17T00:24:28.686Z,25.39
2017-06-17T00:25:28.690Z,25.36
2017-06-17T00:26:28.400Z,25.33
2017-06-17T00:27:28.745Z,25.35
2017-06-17T00:28:28.453Z,25.35
2017-06-17T00:29:28.799Z,25.35
2017-06-17T00:30:28.506Z,25.38
2017-06-17T00:31:28.861Z,25.38
2017-06-17T00:32:28.884Z,25.35
2017-06-17T00:33:28.600Z,25.43
2017-06-17T00:34:28.942Z,25.35
2017-06-17T00:35:28.966Z,25.33
2017-06-17T00:36:29.008Z,25.38
2017-06-17T00:37:29.023Z,25.36
2017-06-17T00:38:28.749Z,25.47
2017-06-17T00:39:28.774Z,25.38
2017-06-17T00:40:28.795Z,25.35
2017-06-17T00:41:29.136Z,25.38
2017-06-17T00:42:28.853Z,25.39
2017-06-17T00:43:29.189Z,25.4
2017-06-17T00:44:29.227Z,25.39
2017-06-17T00:45:29.246Z,25.35
2017-06-17T00:46:28.657Z,25.39
2017-06-17T00:47:29.304Z,25.39
2017-06-17T00:48:29.338Z,25.4
2017-06-17T00:49:29.368Z,25.33
2017-06-17T00:50:29.084Z,25.39
2017-06-17T00:51:29.414Z,25.38
2017-06-17T00:52:29.133Z,25.35
2017-06-17T00:53:29.164Z,25.39
2017-06-17T00:54:29.505Z,25.4
2017-06-17T00:55:29.222Z,25.36
2017-06-17T00:56:29.565Z,25.38
2017-06-17T00:57:29.276Z,25.38
2017-06-17T00:58:29.633Z,25.36
2017-06-17T00:59:29.646Z,25.43
2017-06-17T01:00:29.359Z,25.36
2017-06-17T01:01:29.392Z,25.35
2017-06-17T01:02:29.735Z,25.38
2017-06-17T01:03:29.766Z,25.39
2017-06-17T01:04:29.785Z,25.35
2017-06-17T01:05:29.504Z,25.4
2017-06-17T01:06:29.851Z,25.45
2017-06-17T01:07:29.569Z,25.45
2017-06-17T01:08:29.589Z,25.36
2017-06-17T01:09:29.930Z,25.32
2017-06-17T01:10:29.963Z,25.36
2017-06-17T01:11:29.990Z,25.43
2017-06-17T01:12:30.024Z,25.38
2017-06-17T01:13:29.730Z,25.36
2017-06-17T01:14:30.074Z,25.45
2017-06-17T01:15:30.106Z,25.38
2017-06-17T01:16:30.127Z,25.38
2017-06-17T01:17:29.847Z,25.45
2017-06-17T01:18:30.185Z,25.38
2017-06-17T01:19:30.212Z,25.35
2017-06-17T01:20:30.242Z,25.38
2017-06-17T01:21:30.275Z,25.42
2017-06-17T01:22:29.990Z,25.33
2017-06-17T01:23:30.330Z,25.32
2017-06-17T01:24:30.355Z,25.35
2017-06-17T01:25:30.100Z,25.33
2017-06-17T01:26:30.411Z,25.36
2017-06-17T01:27:30.443Z,25.27
2017-06-17T01:28:30.472Z,25.33
2017-06-17T01:29:29.874Z,25.25
2017-06-17T01:30:30.209Z,25.33
2017-06-17T01:31:30.240Z,25.33
2017-06-17T01:32:30.275Z,25.36
2017-06-17T01:33:30.617Z,25.24
2017-06-17T01:34:30.645Z,25.28
2017-06-17T01:35:30.359Z,25.2
2017-06-17T01:36:30.381Z,25.24
2017-06-17T01:37:30.413Z,25.36
2017-06-17T01:38:30.761Z,25.32
2017-06-17T01:39:30.783Z,25.23
2017-06-17T01:40:30.806Z,25.27
2017-06-17T01:41:30.219Z,25.25
2017-06-17T01:42:30.869Z,25.36
2017-06-17T01:43:30.585Z,25.35
2017-06-17T01:44:30.922Z,25.24
2017-06-17T01:45:30.634Z,25.35
2017-06-17T01:46:30.987Z,25.23
2017-06-17T01:47:30.700Z,25.36
2017-06-17T01:48:31.041Z,25.18
2017-06-17T01:49:31.070Z,25.33
2017-06-17T01:50:31.091Z,25.25
2017-06-17T01:51:30.815Z,25.21
2017-06-17T01:52:30.836Z,25.2
2017-06-17T01:53:31.182Z,25.27
2017-06-17T01:54:31.210Z,25.2
2017-06-17T01:55:31.235Z,25.24
2017-06-17T01:56:30.955Z,25.25
2017-06-17T01:57:31.296Z,25.24
2017-06-17T01:58:31.009Z,25.14
2017-06-17T01:59:31.041Z,25.23
2017-06-17T02:00:31.628Z,25.25
2017-06-17T02:01:31.415Z,25.23
2017-06-17T02:02:31.124Z,25.28
2017-06-17T02:03:30.840Z,25.24
2017-06-17T02:04:31.490Z,25.2
2017-06-17T02:05:31.207Z,25.23
2017-06-17T02:06:31.239Z,25.23
2017-06-17T02:07:31.256Z,25.27
2017-06-17T02:08:31.309Z,25.24
2017-06-17T02:09:31.322Z,25.24
2017-06-17T02:10:31.914Z,25.21
2017-06-17T02:11:31.372Z,25.23
2017-06-17T02:12:31.716Z,25.24
2017-06-17T02:13:31.744Z,25.23
2017-06-17T02:14:31.458Z,25.28
2017-06-17T02:15:32.055Z,25.24
2017-06-17T02:16:31.520Z,25.27
2017-06-17T02:17:31.236Z,25.25
2017-06-17T02:18:31.887Z,25.2
2017-06-17T02:19:31.914Z,25.18
2017-06-17T02:20:32.198Z,25.21
2017-06-17T02:21:31.352Z,25.23
2017-06-17T02:22:32.000Z,25.25
2017-06-17T02:23:31.712Z,25.25
2017-06-17T02:24:31.737Z,25.21
2017-06-17T02:25:32.339Z,25.23
2017-06-17T02:26:31.799Z,25.15
2017-06-17T02:27:31.825Z,25.21
2017-06-17T02:28:31.544Z,25.24
2017-06-17T02:29:31.886Z,25.17
2017-06-17T02:30:31.854Z,25.13
2017-06-17T02:31:32.258Z,25.2
2017-06-17T02:32:31.968Z,25.2
2017-06-17T02:33:32.314Z,25.17
2017-06-17T02:34:31.722Z,25.15
2017-06-17T02:35:32.630Z,25.2
2017-06-17T02:36:32.400Z,25.17
2017-06-17T02:37:32.424Z,25.21
2017-06-17T02:38:32.453Z,25.18
2017-06-17T02:39:32.473Z,25.23
2017-06-17T02:40:32.451Z,25.18
2017-06-17T02:41:32.227Z,25.21
2017-06-17T02:42:32.572Z,25.1
2017-06-17T02:43:32.589Z,25.1
2017-06-17T02:44:32.614Z,25.21
2017-06-17T02:45:32.590Z,25.13
2017-06-17T02:46:32.681Z,25.2
2017-06-17T02:47:32.707Z,25.18
2017-06-17T02:48:32.728Z,25.17
2017-06-17T02:49:32.761Z,25.15
2017-06-17T02:50:32.782Z,25.1
2017-06-17T02:51:32.507Z,25.13
2017-06-17T02:52:32.539Z,25.15
2017-06-17T02:53:32.877Z,25.21
2017-06-17T02:54:32.584Z,25.14
2017-06-17T02:55:32.867Z,25.15
2017-06-17T02:56:32.959Z,25.18
2017-06-17T02:57:32.672Z,25.17
2017-06-17T02:58:32.701Z,25.13
2017-06-17T02:59:33.049Z,25.08
2017-06-17T03:00:33.070Z,25.13
2017-06-17T03:01:32.790Z,25.08
2017-06-17T03:02:32.815Z,25.14
2017-06-17T03:03:33.152Z,25.14
2017-06-17T03:04:32.874Z,25.14
2017-06-17T03:05:33.467Z,25.08
2017-06-17T03:06:33.246Z,25.14
2017-06-17T03:07:32.958Z,25.06
2017-06-17T03:08:32.979Z,25.08
2017-06-17T03:09:33.017Z,25.1
2017-06-17T03:10:33.606Z,25.06
2017-06-17T03:11:33.391Z,25.06
2017-06-17T03:12:33.412Z,25.1
2017-06-17T03:13:33.129Z,25.05
2017-06-17T03:14:33.457Z,25.08
2017-06-17T03:15:33.747Z,25.09
2017-06-17T03:16:33.207Z,25.03
2017-06-17T03:17:33.549Z,25.03
2017-06-17T03:18:33.569Z,25.09
2017-06-17T03:19:33.299Z,25.05
2017-06-17T03:20:33.878Z,25.08
2017-06-17T03:21:33.672Z,25.05
2017-06-17T03:22:33.696Z,25.08
2017-06-17T03:23:33.723Z,25.1
2017-06-17T03:24:33.749Z,25.02
2017-06-17T03:25:33.778Z,25.13
2017-06-17T03:26:33.496Z,25.05
2017-06-17T03:27:33.836Z,25.1
2017-06-17T03:28:33.554Z,25.14
2017-06-17T03:29:33.889Z,25.1
2017-06-17T03:30:33.539Z,25.14
2017-06-17T03:31:33.632Z,25.15
2017-06-17T03:32:33.667Z,25.08
2017-06-17T03:33:34.016Z,25.08
2017-06-17T03:34:34.044Z,25.06
2017-06-17T03:35:34.298Z,25.08
2017-06-17T03:36:34.086Z,25.14
2017-06-17T03:37:34.112Z,25.05
2017-06-17T03:38:33.821Z,25.13
2017-06-17T03:39:34.170Z,25.15
2017-06-17T03:40:34.452Z,25.05
2017-06-17T03:41:34.222Z,25.14
2017-06-17T03:42:33.940Z,25.17
2017-06-17T03:43:33.654Z,25.05
2017-06-17T03:44:34.313Z,25.13
2017-06-17T03:45:34.274Z,25.13
2017-06-17T03:46:34.377Z,25.13
2017-06-17T03:47:34.388Z,25.09
2017-06-17T03:48:34.424Z,25.13
2017-06-17T03:49:34.142Z,25.13
2017-06-17T03:50:34.478Z,25.13
2017-06-17T03:51:34.507Z,25.1
2017-06-17T03:52:34.525Z,25.13
2017-06-17T03:53:34.565Z,25.09
2017-06-17T03:54:33.969Z,25.15
2017-06-17T03:55:34.549Z,25.08
2017-06-17T03:56:34.656Z,25.18
2017-06-17T03:57:34.043Z,25.14
2017-06-17T03:58:34.705Z,25.15
2017-06-17T03:59:34.727Z,25.17
2017-06-17T04:00:34.766Z,25.08
2017-06-17T04:01:34.782Z,25.15
2017-06-17T04:02:34.808Z,25.13
2017-06-17T04:03:34.845Z,25.1
2017-06-17T04:04:34.874Z,25.08
2017-06-17T04:05:34.898Z,25.08
2017-06-17T04:06:34.930Z,25.02
2017-06-17T04:07:34.651Z,25.03
2017-06-17T04:08:34.358Z,25.06
2017-06-17T04:09:34.701Z,25.05
2017-06-17T04:10:35.290Z,25.1
2017-06-17T04:11:34.766Z,25.05
2017-06-17T04:12:35.099Z,25.05
2017-06-17T04:13:35.132Z,25.08
2017-06-17T04:14:35.153Z,25
2017-06-17T04:15:35.430Z,25.09
2017-06-17T04:16:34.888Z,25.02
2017-06-17T04:17:35.235Z,25.05
2017-06-17T04:18:35.268Z,25.06
2017-06-17T04:19:34.973Z,25.03
2017-06-17T04:20:35.321Z,25.09
2017-06-17T04:21:35.346Z,25.08
2017-06-17T04:22:35.057Z,25.09
2017-06-17T04:23:35.401Z,25.08
2017-06-17T04:24:35.431Z,25.1
2017-06-17T04:25:35.710Z,25.05
2017-06-17T04:26:35.166Z,25.08
2017-06-17T04:27:35.203Z,25.13
2017-06-17T04:28:35.229Z,25.09
2017-06-17T04:29:35.253Z,25.08
2017-06-17T04:30:35.546Z,25.08
2017-06-17T04:31:35.627Z,25.05
2017-06-17T04:32:35.659Z,25.08
2017-06-17T04:33:35.375Z,25.1
2017-06-17T04:34:35.709Z,25.13
2017-06-17T04:35:35.434Z,25.09
2017-06-17T04:36:35.767Z,25.06
2017-06-17T04:37:35.796Z,25.17
2017-06-17T04:38:35.831Z,25.08
2017-06-17T04:39:35.546Z,25.13
2017-06-17T04:40:36.134Z,25.05
2017-06-17T04:41:35.908Z,25.1
2017-06-17T04:42:35.931Z,25.1
2017-06-17T04:43:35.964Z,25.14
2017-06-17T04:44:35.690Z,25.06
2017-06-17T04:45:35.711Z,25.17
2017-06-17T04:46:36.050Z,25.06
2017-06-17T04:47:36.084Z,25.05
2017-06-17T04:48:35.796Z,25.13
2017-06-17T04:49:36.139Z,25.13
2017-06-17T04:50:36.423Z,25.06
2017-06-17T04:51:36.195Z,25.14
2017-06-17T04:52:36.220Z,25.13
2017-06-17T04:53:36.244Z,25.13
2017-06-17T04:54:36.278Z,25.14
2017-06-17T04:55:36.554Z,25.08
2017-06-17T04:56:36.322Z,25.05
2017-06-17T04:57:36.359Z,25.13
2017-06-17T04:58:36.077Z,25
2017-06-17T04:59:36.106Z,25.05
2017-06-17T05:00:36.447Z,25.06
2017-06-17T05:01:36.468Z,25
2017-06-17T05:02:36.191Z,25
2017-06-17T05:03:36.220Z,24.95
2017-06-17T05:04:36.246Z,24.95
2017-06-17T05:05:36.270Z,24.98
2017-06-17T05:06:36.290Z,25
2017-06-17T05:07:36.017Z,24.95
2017-06-17T05:08:36.361Z,24.96
2017-06-17T05:09:36.702Z,25.03
2017-06-17T05:10:36.722Z,24.99
2017-06-17T05:11:36.751Z,25
2017-06-17T05:12:36.784Z,25.03
2017-06-17T05:13:36.496Z,25.02
2017-06-17T05:14:36.527Z,25.05
2017-06-17T05:15:36.865Z,25.05
2017-06-17T05:16:36.891Z,25.05
2017-06-17T05:17:36.300Z,25.13
2017-06-17T05:18:36.948Z,25.15
2017-06-17T05:19:36.978Z,25.17
2017-06-17T05:20:36.943Z,25.09
2017-06-17T05:21:37.039Z,25.1
2017-06-17T05:22:37.067Z,25.1
2017-06-17T05:23:36.836Z,25.15
2017-06-17T05:24:37.119Z,25.15
2017-06-17T05:25:37.392Z,25.14
2017-06-17T05:26:37.174Z,25.13
2017-06-17T05:27:37.208Z,25.18
2017-06-17T05:28:36.920Z,25.13
2017-06-17T05:29:36.949Z,25.18
2017-06-17T05:30:37.290Z,25.14
2017-06-17T05:31:37.315Z,25.17
2017-06-17T05:32:37.339Z,25.17
2017-06-17T05:33:37.365Z,25.2
2017-06-17T05:34:37.405Z,25.09
2017-06-17T05:35:37.433Z,25.18
2017-06-17T05:36:37.147Z,25.18
2017-06-17T05:37:37.171Z,25.08
2017-06-17T05:38:37.200Z,25.21
2017-06-17T05:39:37.228Z,25.2
2017-06-17T05:40:37.254Z,25.24
2017-06-17T05:41:37.597Z,25.14
2017-06-17T05:42:37.629Z,25.13
2017-06-17T05:43:37.656Z,25.17
2017-06-17T05:44:37.365Z,25.2
2017-06-17T05:45:37.710Z,25.08
2017-06-17T05:46:37.734Z,25.08
2017-06-17T05:47:37.767Z,25.24
2017-06-17T05:48:37.793Z,25.2
2017-06-17T05:49:37.824Z,25.15
2017-06-17T05:50:37.846Z,25.18
2017-06-17T05:51:37.882Z,25.08
2017-06-17T05:52:37.616Z,25.2
2017-06-17T05:53:37.932Z,25.24
2017-06-17T05:54:37.962Z,25.21
2017-06-17T05:55:37.680Z,25.09
2017-06-17T05:56:37.709Z,25.14
2017-06-17T05:57:37.738Z,25.18
2017-06-17T05:58:38.075Z,25.25
2017-06-17T05:59:37.789Z,25.18
2017-06-17T06:00:37.817Z,25.27
2017-06-17T06:01:37.851Z,25.23
2017-06-17T06:02:38.187Z,25.21
2017-06-17T06:03:37.591Z,25.24
2017-06-17T06:04:38.257Z,25.2
2017-06-17T06:05:38.274Z,25.21
2017-06-17T06:06:38.298Z,25.21
2017-06-17T06:07:38.015Z,25.28
2017-06-17T06:08:38.356Z,25.21
2017-06-17T06:09:38.064Z,25.25
2017-06-17T06:10:38.417Z,25.25
2017-06-17T06:11:38.446Z,25.27
2017-06-17T06:12:38.472Z,25.18
2017-06-17T06:13:38.500Z,25.23
2017-06-17T06:14:38.207Z,25.23
2017-06-17T06:15:38.548Z,25.23
2017-06-17T06:16:38.586Z,25.21
2017-06-17T06:17:38.611Z,25.33
2017-06-17T06:18:38.322Z,25.24
2017-06-17T06:19:38.357Z,25.38
2017-06-17T06:20:38.390Z,25.38
2017-06-17T06:21:38.663Z,25.38
2017-06-17T06:22:38.756Z,25.45
2017-06-17T06:23:38.784Z,25.4
2017-06-17T06:24:38.812Z,25.32
2017-06-17T06:25:38.841Z,25.3
2017-06-17T06:26:38.862Z,25.36
2017-06-17T06:27:38.578Z,25.39
2017-06-17T06:28:38.606Z,25.38
2017-06-17T06:29:38.628Z,25.38
2017-06-17T06:30:38.980Z,25.38
2017-06-17T06:31:39.003Z,25.35
2017-06-17T06:32:39.036Z,25.39
2017-06-17T06:33:38.752Z,25.4
2017-06-17T06:34:38.773Z,25.4
2017-06-17T06:35:39.121Z,25.39
2017-06-17T06:36:39.394Z,25.36
2017-06-17T06:37:39.174Z,25.36
2017-06-17T06:38:39.219Z,25.36
2017-06-17T06:39:39.225Z,25.33
2017-06-17T06:40:38.953Z,25.39
2017-06-17T06:41:39.243Z,25.36
2017-06-17T06:42:39.314Z,25.38
2017-06-17T06:43:39.084Z,25.39
2017-06-17T06:44:39.376Z,25.42
2017-06-17T06:45:39.409Z,25.35
2017-06-17T06:46:39.673Z,25.4
2017-06-17T06:47:39.454Z,25.35
2017-06-17T06:48:39.487Z,25.4
2017-06-17T06:49:39.205Z,25.47
2017-06-17T06:50:39.553Z,25.43
2017-06-17T06:51:39.815Z,25.38
2017-06-17T06:52:39.293Z,25.46
2017-06-17T06:53:39.312Z,25.46
2017-06-17T06:54:39.662Z,25.45
2017-06-17T06:55:39.688Z,25.46
2017-06-17T06:56:39.963Z,25.43
2017-06-17T06:57:39.750Z,25.4
2017-06-17T06:58:39.775Z,25.46
2017-06-17T06:59:39.802Z,25.52
2017-06-17T07:00:40.393Z,25.47
2017-06-17T07:01:40.621Z,25.5
2017-06-17T07:02:39.864Z,25.6
2017-06-17T07:03:39.916Z,25.46
2017-06-17T07:04:39.946Z,25.47
2017-06-17T07:05:39.976Z,25.54
2017-06-17T07:06:40.007Z,25.5
2017-06-17T07:07:40.020Z,25.47
2017-06-17T07:08:39.427Z,25.51
2017-06-17T07:09:39.774Z,25.5
2017-06-17T07:10:39.802Z,25.45
2017-06-17T07:11:40.399Z,25.6
2017-06-17T07:12:39.850Z,25.47
2017-06-17T07:13:39.892Z,25.58
2017-06-17T07:14:39.907Z,25.54
2017-06-17T07:15:40.257Z,25.58
2017-06-17T07:16:39.973Z,25.55
2017-06-17T07:17:39.690Z,25.58
2017-06-17T07:18:39.724Z,25.58
2017-06-17T07:19:40.056Z,25.62
2017-06-17T07:20:39.781Z,25.57
2017-06-17T07:21:40.686Z,25.64
2017-06-17T07:22:40.150Z,25.64
2017-06-17T07:23:40.488Z,25.62
2017-06-17T07:24:40.517Z,25.67
2017-06-17T07:25:40.532Z,25.6
2017-06-17T07:26:40.571Z,25.69
2017-06-17T07:27:40.600Z,25.69
2017-06-17T07:28:40.632Z,25.67
2017-06-17T07:29:40.660Z,25.69
2017-06-17T07:30:40.687Z,25.72
2017-06-17T07:31:40.718Z,25.75
2017-06-17T07:32:40.752Z,25.69
2017-06-17T07:33:40.464Z,25.7
2017-06-17T07:34:40.492Z,25.79
2017-06-17T07:35:40.833Z,25.69
2017-06-17T07:36:41.113Z,25.72
2017-06-17T07:37:40.891Z,25.76
2017-06-17T07:38:40.923Z,25.77
2017-06-17T07:39:40.948Z,25.79
2017-06-17T07:40:40.976Z,25.83
2017-06-17T07:41:41.002Z,25.85
2017-06-17T07:42:40.726Z,25.79
2017-06-17T07:43:41.060Z,25.8
2017-06-17T07:44:40.775Z,25.79
2017-06-17T07:45:41.121Z,25.82
2017-06-17T07:46:41.092Z,25.8
2017-06-17T07:47:41.170Z,25.75
2017-06-17T07:48:40.890Z,25.79
2017-06-17T07:49:41.232Z,25.87
2017-06-17T07:50:41.301Z,25.88
2017-06-17T07:51:41.282Z,25.73
2017-06-17T07:52:41.342Z,25.79
2017-06-17T07:53:41.339Z,25.88
2017-06-17T07:54:41.372Z,25.88
2017-06-17T07:55:41.396Z,25.92
2017-06-17T07:56:41.434Z,25.88
2017-06-17T07:57:40.853Z,25.9
2017-06-17T07:58:41.492Z,25.88
2017-06-17T07:59:41.520Z,25.92
2017-06-17T08:00:41.549Z,25.79
2017-06-17T08:01:41.563Z,25.91
2017-06-17T08:02:41.588Z,25.87
2017-06-17T08:03:41.615Z,25.83
2017-06-17T08:04:41.641Z,25.83
2017-06-17T08:05:41.678Z,25.9
2017-06-17T08:06:41.695Z,25.83
2017-06-17T08:07:41.429Z,25.87
2017-06-17T08:08:41.454Z,25.87
2017-06-17T08:09:41.483Z,25.77
2017-06-17T08:10:41.830Z,25.8
2017-06-17T08:11:42.113Z,25.77
2017-06-17T08:12:41.899Z,25.77
2017-06-17T08:13:41.920Z,25.82
2017-06-17T08:14:41.940Z,25.8
2017-06-17T08:15:41.669Z,25.76
2017-06-17T08:16:42.265Z,25.83
2017-06-17T08:17:42.043Z,25.79
2017-06-17T08:18:42.071Z,25.82
2017-06-17T08:19:41.779Z,25.82
2017-06-17T08:20:42.125Z,25.8
2017-06-17T08:21:42.159Z,25.77
2017-06-17T08:22:42.182Z,25.77
2017-06-17T08:23:41.899Z,25.75
2017-06-17T08:24:42.248Z,25.77
2017-06-17T08:25:42.286Z,25.82
2017-06-17T08:26:42.303Z,25.77
2017-06-17T08:27:42.331Z,25.82
2017-06-17T08:28:42.351Z,25.75
2017-06-17T08:29:42.388Z,25.77
2017-06-17T08:30:42.435Z,25.77
2017-06-17T08:31:42.380Z,25.8
2017-06-17T08:32:42.470Z,25.77
2017-06-17T08:33:42.507Z,25.8
2017-06-17T08:34:42.527Z,25.77
2017-06-17T08:35:42.248Z,25.85
2017-06-17T08:36:42.589Z,25.87
2017-06-17T08:37:42.613Z,25.88
2017-06-17T08:38:42.647Z,25.85
2017-06-17T08:39:42.685Z,25.83
2017-06-17T08:40:42.080Z,25.91
2017-06-17T08:41:42.114Z,25.91
2017-06-17T08:42:42.446Z,25.91
2017-06-17T08:43:42.479Z,25.97
2017-06-17T08:44:42.512Z,25.88
2017-06-17T08:45:42.536Z,25.83
2017-06-17T08:46:42.878Z,25.91
2017-06-17T08:47:42.909Z,25.94
2017-06-17T08:48:42.938Z,25.91
2017-06-17T08:49:42.964Z,25.94
2017-06-17T08:50:42.362Z,25.91
2017-06-17T08:51:42.710Z,25.87
2017-06-17T08:52:43.052Z,25.94
2017-06-17T08:53:43.087Z,25.9
2017-06-17T08:54:43.112Z,25.87
2017-06-17T08:55:42.831Z,25.98
2017-06-17T08:56:43.163Z,25.92
2017-06-17T08:57:43.199Z,26.07
2017-06-17T08:58:43.228Z,26.09
2017-06-17T08:59:43.256Z,25.92
2017-06-17T09:00:43.281Z,26.02
2017-06-17T09:01:43.313Z,25.97
2017-06-17T09:02:43.032Z,26.01
2017-06-17T09:03:43.381Z,25.91
2017-06-17T09:04:43.400Z,26.07
2017-06-17T09:05:43.122Z,25.99
2017-06-17T09:06:43.138Z,26.05
2017-06-17T09:07:43.428Z,25.91
2017-06-17T09:08:43.514Z,25.95
2017-06-17T09:09:43.231Z,26.05
2017-06-17T09:10:43.567Z,26.05
2017-06-17T09:11:43.605Z,25.97
2017-06-17T09:12:43.321Z,26.1
2017-06-17T09:13:43.352Z,26.05
2017-06-17T09:14:43.388Z,26.06
2017-06-17T09:15:43.720Z,26.07
2017-06-17T09:16:43.753Z,26.06
2017-06-17T09:17:44.029Z,26.07
2017-06-17T09:18:43.806Z,26.05
2017-06-17T09:19:43.840Z,26.02
2017-06-17T09:20:43.868Z,26.12
2017-06-17T09:21:43.578Z,26.01
2017-06-17T09:22:44.174Z,26.02
2017-06-17T09:23:43.950Z,26.02
2017-06-17T09:24:43.664Z,26.06
2017-06-17T09:25:43.704Z,26.07
2017-06-17T09:26:43.733Z,26.05
2017-06-17T09:27:43.790Z,25.94
2017-06-17T09:28:44.107Z,26.07
2017-06-17T09:29:43.847Z,26.02
2017-06-17T09:30:44.160Z,26.06
2017-06-17T09:31:44.185Z,26.07
2017-06-17T09:32:44.470Z,26.07
2017-06-17T09:33:43.935Z,26.06
2017-06-17T09:34:44.270Z,26.01
2017-06-17T09:35:44.301Z,25.99
2017-06-17T09:36:44.018Z,26.07
2017-06-17T09:37:44.360Z,26.06
2017-06-17T09:38:44.390Z,26.06
2017-06-17T09:39:44.419Z,26.07
2017-06-17T09:40:44.452Z,26.06
2017-06-17T09:41:44.473Z,26.09
2017-06-17T09:42:44.195Z,26.06
2017-06-17T09:43:43.902Z,26.07
2017-06-17T09:44:44.255Z,25.94
2017-06-17T09:45:44.597Z,26.07
2017-06-17T09:46:44.304Z,26.01
2017-06-17T09:47:44.654Z,26.06
2017-06-17T09:48:44.682Z,25.99
2017-06-17T09:49:44.716Z,26.05
2017-06-17T09:50:44.744Z,26.06
2017-06-17T09:51:44.765Z,26.1
2017-06-17T09:52:44.489Z,26.05
2017-06-17T09:53:44.526Z,26.01
2017-06-17T09:54:44.854Z,26.06
2017-06-17T09:55:44.580Z,26.06
2017-06-17T09:56:44.919Z,26.07
2017-06-17T09:57:44.622Z,26.12
2017-06-17T09:58:44.969Z,26.18
2017-06-17T09:59:45.002Z,26.05
2017-06-17T10:00:44.720Z,26.05
2017-06-17T10:01:45.064Z,26.07
2017-06-17T10:02:45.029Z,26.13
2017-06-17T10:03:44.814Z,26.07
2017-06-17T10:04:45.147Z,26.17
2017-06-17T10:05:44.548Z,26.07
2017-06-17T10:06:44.889Z,26.2
2017-06-17T10:07:45.494Z,26.2
2017-06-17T10:08:45.262Z,26.07
2017-06-17T10:09:45.294Z,26.17
2017-06-17T10:10:45.315Z,26.17
2017-06-17T10:11:45.354Z,26.09
2017-06-17T10:12:45.322Z,26.13
2017-06-17T10:13:45.420Z,26.15
2017-06-17T10:14:45.435Z,26.17
2017-06-17T10:15:45.161Z,26.17
2017-06-17T10:16:45.504Z,26.17
2017-06-17T10:17:45.218Z,26.18
2017-06-17T10:18:45.250Z,26.1
2017-06-17T10:19:45.275Z,26.1
2017-06-17T10:20:45.615Z,26.1
2017-06-17T10:21:45.652Z,26.07
2017-06-17T10:22:45.616Z,26.12
2017-06-17T10:23:45.707Z,26.18
2017-06-17T10:24:45.730Z,26.17
2017-06-17T10:25:45.760Z,26.07
2017-06-17T10:26:45.792Z,26.13
2017-06-17T10:27:45.762Z,26.07
2017-06-17T10:28:45.849Z,26.09
2017-06-17T10:29:45.874Z,26.13
2017-06-17T10:30:45.912Z,26.05
2017-06-17T10:31:45.945Z,26.09
2017-06-17T10:32:45.657Z,26.06
2017-06-17T10:33:45.998Z,26.06
2017-06-17T10:34:45.710Z,26.13
2017-06-17T10:35:46.056Z,26.07
2017-06-17T10:36:46.085Z,26.09
2017-06-17T10:37:45.800Z,26.1
2017-06-17T10:38:46.143Z,26.1
2017-06-17T10:39:45.854Z,26.07
2017-06-17T10:40:46.199Z,26.1
2017-06-17T10:41:46.244Z,26.09
2017-06-17T10:42:45.952Z,26.07
2017-06-17T10:43:46.290Z,26.13
2017-06-17T10:44:46.306Z,26.06
2017-06-17T10:45:46.348Z,26.1
2017-06-17T10:46:46.377Z,26.12
2017-06-17T10:47:46.397Z,26.09
2017-06-17T10:48:46.430Z,26.09
2017-06-17T10:49:46.463Z,26.13
2017-06-17T10:50:46.498Z,26.1
2017-06-17T10:51:46.524Z,26.07
2017-06-17T10:52:46.485Z,26.09
2017-06-17T10:53:46.601Z,26.12
2017-06-17T10:54:45.979Z,26.07
2017-06-17T10:55:46.639Z,26.15
2017-06-17T10:56:46.352Z,26.1
2017-06-17T10:57:46.953Z,26.06
2017-06-17T10:58:46.408Z,26.18
2017-06-17T10:59:46.755Z,26.1
2017-06-17T11:00:46.789Z,26.09
2017-06-17T11:01:46.811Z,26.18
2017-06-17T11:02:46.548Z,26.06
2017-06-17T11:03:46.870Z,26.12
2017-06-17T11:04:46.902Z,26.17
2017-06-17T11:05:46.931Z,26.17
2017-06-17T11:06:46.964Z,26.12
2017-06-17T11:07:46.352Z,26.1
2017-06-17T11:08:46.701Z,26.12
2017-06-17T11:09:47.050Z,26.07
2017-06-17T11:10:46.754Z,26.15
2017-06-17T11:11:47.104Z,26.15
2017-06-17T11:12:47.137Z,26.15
2017-06-17T11:13:46.854Z,26.13
2017-06-17T11:14:47.199Z,26.12
2017-06-17T11:15:47.222Z,26.15
2017-06-17T11:16:47.244Z,26.18
2017-06-17T11:17:46.972Z,26.15
2017-06-17T11:18:47.311Z,26.17
2017-06-17T11:19:47.339Z,26.2
2017-06-17T11:20:47.059Z,26.21
2017-06-17T11:21:47.084Z,26.25
2017-06-17T11:22:47.430Z,26.23
2017-06-17T11:23:47.143Z,26.18
2017-06-17T11:24:47.171Z,26.2
2017-06-17T11:25:47.520Z,26.18
2017-06-17T11:26:47.548Z,26.26
2017-06-17T11:27:47.571Z,26.32
2017-06-17T11:28:47.845Z,26.3
2017-06-17T11:29:47.326Z,26.29
2017-06-17T11:30:47.659Z,26.3
2017-06-17T11:31:47.693Z,26.32
2017-06-17T11:32:47.716Z,26.25
2017-06-17T11:33:48.002Z,26.36
2017-06-17T11:34:47.151Z,26.33
2017-06-17T11:35:47.807Z,26.37
2017-06-17T11:36:47.835Z,26.37
2017-06-17T11:37:47.240Z,26.43
2017-06-17T11:38:47.893Z,26.39
2017-06-17T11:39:47.954Z,26.48
2017-06-17T11:40:47.951Z,26.44
2017-06-17T11:41:47.704Z,26.5
2017-06-17T11:42:48.017Z,26.47
2017-06-17T11:43:48.289Z,26.51
2017-06-17T11:44:47.446Z,26.58
2017-06-17T11:45:47.832Z,26.55
2017-06-17T11:46:48.133Z,26.58
2017-06-17T11:47:47.873Z,26.5
2017-06-17T11:48:48.437Z,26.67
2017-06-17T11:49:48.219Z,26.66
2017-06-17T11:50:48.255Z,26.6
2017-06-17T11:51:47.968Z,26.6
2017-06-17T11:52:48.311Z,26.63
2017-06-17T11:53:48.573Z,26.66
2017-06-17T11:54:48.368Z,26.76
2017-06-17T11:55:48.404Z,26.76
2017-06-17T11:56:48.118Z,26.75
2017-06-17T11:57:48.145Z,26.7
2017-06-17T11:58:48.486Z,26.85
2017-06-17T11:59:48.207Z,26.84
2017-06-17T12:00:48.539Z,26.82
2017-06-17T12:01:47.951Z,26.91
2017-06-17T12:02:48.608Z,26.88
2017-06-17T12:03:48.634Z,26.99
2017-06-17T12:04:48.667Z,27.02
2017-06-17T12:05:48.693Z,27.12
2017-06-17T12:06:48.088Z,27.1
2017-06-17T12:07:48.757Z,27.1
2017-06-17T12:08:48.721Z,27.14
2017-06-17T12:09:48.816Z,27.12
2017-06-17T12:10:48.838Z,27.1
2017-06-17T12:11:48.873Z,27.17
2017-06-17T12:12:48.589Z,27.09
2017-06-17T12:13:49.185Z,27.13
2017-06-17T12:14:48.963Z,27.1
2017-06-17T12:15:48.679Z,27.07
2017-06-17T12:16:48.703Z,27.14
2017-06-17T12:17:49.048Z,27.09
2017-06-17T12:18:49.009Z,27.07
2017-06-17T12:19:49.116Z,27.09
2017-06-17T12:20:48.826Z,27.04
2017-06-17T12:21:49.173Z,27
2017-06-17T12:22:48.892Z,26.91
2017-06-17T12:23:49.242Z,26.94
2017-06-17T12:24:48.947Z,26.92
2017-06-17T12:25:48.979Z,26.94
2017-06-17T12:26:49.319Z,26.88
2017-06-17T12:27:49.357Z,26.82
2017-06-17T12:28:49.380Z,26.94
2017-06-17T12:29:49.094Z,26.89
2017-06-17T12:30:49.123Z,26.8
2017-06-17T12:31:49.151Z,26.82
2017-06-17T12:32:49.497Z,26.87
2017-06-17T12:33:49.473Z,26.81
2017-06-17T12:34:49.238Z,26.84
2017-06-17T12:35:49.586Z,26.8
2017-06-17T12:36:49.304Z,26.81
2017-06-17T12:37:49.364Z,26.8
2017-06-17T12:38:49.682Z,26.8
2017-06-17T12:39:49.393Z,26.82
2017-06-17T12:40:49.420Z,26.77
2017-06-17T12:41:49.769Z,26.76
2017-06-17T12:42:49.795Z,26.76
2017-06-17T12:43:50.373Z,26.88
2017-06-17T12:44:49.853Z,26.91
2017-06-17T12:45:49.587Z,26.87
2017-06-17T12:46:49.911Z,26.94
2017-06-17T12:47:49.628Z,26.85
2017-06-17T12:48:50.224Z,26.95
2017-06-17T12:49:50.010Z,26.89
2017-06-17T12:50:50.031Z,26.84
2017-06-17T12:51:49.748Z,26.92
2017-06-17T12:52:50.092Z,26.92
2017-06-17T12:53:50.369Z,26.92
2017-06-17T12:54:50.137Z,26.95
2017-06-17T12:55:49.870Z,27.02
2017-06-17T12:56:50.212Z,26.97